sensor_id;sensor_type;location;lat;lon;timestamp;P1;durP1;ratioP1;P2;durP2;ratioP2
52674;SDS011;38569;52.722;6.440;2023-10-13T00:01:56;51.90;;;32.45;;
52674;SDS011;38569;52.722;6.440;2023-10-13T00:04:29;47.13;;;31.67;;
52674;SDS011;38569;52.722;6.440;2023-10-13T00:06:56;46.13;;;29.63;;
52674;SDS011;38569;52.722;6.440;2023-10-13T00:09:23;41.03;;;29.77;;
52674;SDS011;38569;52.722;6.440;2023-10-13T00:11:50;48.22;;;31.52;;
52674;SDS011;38569;52.722;6.440;2023-10-13T00:14:17;49.38;;;31.55;;
52674;SDS011;38569;52.722;6.440;2023-10-13T00:16:45;44.45;;;30.50;;
52674;SDS011;38569;52.722;6.440;2023-10-13T00:19:27;41.50;;;28.10;;
52674;SDS011;38569;52.722;6.440;2023-10-13T00:22:09;41.50;;;28.25;;
52674;SDS011;38569;52.722;6.440;2023-10-13T00:24:36;52.20;;;30.50;;
52674;SDS011;38569;52.722;6.440;2023-10-13T00:27:08;50.10;;;31.83;;
52674;SDS011;38569;52.722;6.440;2023-10-13T00:29:53;51.35;;;31.95;;
52674;SDS011;38569;52.722;6.440;2023-10-13T00:32:40;48.60;;;30.77;;
52674;SDS011;38569;52.722;6.440;2023-10-13T00:35:09;41.75;;;30.00;;
52674;SDS011;38569;52.722;6.440;2023-10-13T00:37:41;49.13;;;33.13;;
52674;SDS011;38569;52.722;6.440;2023-10-13T00:40:09;41.13;;;29.35;;
52674;SDS011;38569;52.722;6.440;2023-10-13T00:42:59;49.85;;;31.95;;
52674;SDS011;38569;52.722;6.440;2023-10-13T00:45:45;51.08;;;31.73;;
52674;SDS011;38569;52.722;6.440;2023-10-13T00:48:21;46.15;;;30.90;;
52674;SDS011;38569;52.722;6.440;2023-10-13T00:50:53;41.40;;;30.58;;
52674;SDS011;38569;52.722;6.440;2023-10-13T00:53:24;47.92;;;31.98;;
52674;SDS011;38569;52.722;6.440;2023-10-13T00:55:51;55.88;;;33.45;;
52674;SDS011;38569;52.722;6.440;2023-10-13T00:58:19;53.65;;;32.47;;
52674;SDS011;38569;52.722;6.440;2023-10-13T01:00:48;48.63;;;32.13;;
52674;SDS011;38569;52.722;6.440;2023-10-13T01:05:51;47.67;;;32.78;;
52674;SDS011;38569;52.722;6.440;2023-10-13T01:08:30;48.17;;;32.25;;
52674;SDS011;38569;52.722;6.440;2023-10-13T01:11:00;49.40;;;32.38;;
52674;SDS011;38569;52.722;6.440;2023-10-13T01:13:26;61.35;;;34.63;;
52674;SDS011;38569;52.722;6.440;2023-10-13T01:15:52;57.28;;;35.53;;
52674;SDS011;38569;52.722;6.440;2023-10-13T01:18:18;50.40;;;32.63;;
52674;SDS011;38569;52.722;6.440;2023-10-13T01:20:45;49.28;;;34.75;;
52674;SDS011;38569;52.722;6.440;2023-10-13T01:23:17;61.30;;;35.33;;
52674;SDS011;38569;52.722;6.440;2023-10-13T01:25:49;52.47;;;32.85;;
52674;SDS011;38569;52.722;6.440;2023-10-13T01:28:15;49.13;;;33.92;;
52674;SDS011;38569;52.722;6.440;2023-10-13T01:30:42;49.33;;;32.20;;
52674;SDS011;38569;52.722;6.440;2023-10-13T01:33:09;44.90;;;30.77;;
52674;SDS011;38569;52.722;6.440;2023-10-13T01:35:36;44.17;;;30.60;;
52674;SDS011;38569;52.722;6.440;2023-10-13T01:38:12;41.42;;;29.77;;
52674;SDS011;38569;52.722;6.440;2023-10-13T01:40:38;38.40;;;29.80;;
52674;SDS011;38569;52.722;6.440;2023-10-13T01:43:04;40.58;;;30.65;;
52674;SDS011;38569;52.722;6.440;2023-10-13T01:45:35;46.17;;;30.15;;
52674;SDS011;38569;52.722;6.440;2023-10-13T01:48:04;43.42;;;29.55;;
52674;SDS011;38569;52.722;6.440;2023-10-13T01:50:31;41.42;;;29.55;;
52674;SDS011;38569;52.722;6.440;2023-10-13T01:52:57;41.58;;;28.65;;
52674;SDS011;38569;52.722;6.440;2023-10-13T01:55:38;43.95;;;27.17;;
52674;SDS011;38569;52.722;6.440;2023-10-13T01:58:09;45.20;;;30.50;;
52674;SDS011;38569;52.722;6.440;2023-10-13T02:00:40;43.35;;;29.35;;
52674;SDS011;38569;52.722;6.440;2023-10-13T02:03:09;47.53;;;29.23;;
52674;SDS011;38569;52.722;6.440;2023-10-13T02:05:40;39.35;;;27.42;;
52674;SDS011;38569;52.722;6.440;2023-10-13T02:08:09;35.95;;;26.77;;
52674;SDS011;38569;52.722;6.440;2023-10-13T02:10:36;39.53;;;27.02;;
52674;SDS011;38569;52.722;6.440;2023-10-13T02:13:10;36.83;;;25.60;;
52674;SDS011;38569;52.722;6.440;2023-10-13T02:15:41;41.38;;;28.92;;
52674;SDS011;38569;52.722;6.440;2023-10-13T02:18:11;36.15;;;24.63;;
52674;SDS011;38569;52.722;6.440;2023-10-13T02:20:54;41.15;;;25.42;;
52674;SDS011;38569;52.722;6.440;2023-10-13T02:23:29;41.65;;;26.35;;
52674;SDS011;38569;52.722;6.440;2023-10-13T02:25:56;40.85;;;26.48;;
52674;SDS011;38569;52.722;6.440;2023-10-13T02:28:37;37.45;;;27.55;;
52674;SDS011;38569;52.722;6.440;2023-10-13T02:31:03;34.42;;;24.75;;
52674;SDS011;38569;52.722;6.440;2023-10-13T02:33:30;40.22;;;24.67;;
52674;SDS011;38569;52.722;6.440;2023-10-13T02:36:00;34.85;;;25.45;;
52674;SDS011;38569;52.722;6.440;2023-10-13T02:38:31;37.90;;;23.80;;
52674;SDS011;38569;52.722;6.440;2023-10-13T02:41:00;35.63;;;24.35;;
52674;SDS011;38569;52.722;6.440;2023-10-13T02:43:33;41.15;;;25.08;;
52674;SDS011;38569;52.722;6.440;2023-10-13T02:46:03;37.50;;;24.30;;
52674;SDS011;38569;52.722;6.440;2023-10-13T02:48:29;35.92;;;24.33;;
52674;SDS011;38569;52.722;6.440;2023-10-13T02:51:05;41.35;;;24.27;;
52674;SDS011;38569;52.722;6.440;2023-10-13T02:53:41;30.75;;;22.35;;
52674;SDS011;38569;52.722;6.440;2023-10-13T02:56:07;34.42;;;23.23;;
52674;SDS011;38569;52.722;6.440;2023-10-13T02:58:33;48.25;;;23.73;;
52674;SDS011;38569;52.722;6.440;2023-10-13T03:01:08;36.15;;;23.67;;
52674;SDS011;38569;52.722;6.440;2023-10-13T03:03:48;35.08;;;22.75;;
52674;SDS011;38569;52.722;6.440;2023-10-13T03:06:17;35.20;;;22.73;;
52674;SDS011;38569;52.722;6.440;2023-10-13T03:08:47;38.15;;;23.17;;
52674;SDS011;38569;52.722;6.440;2023-10-13T03:11:13;35.03;;;23.55;;
52674;SDS011;38569;52.722;6.440;2023-10-13T03:13:39;35.83;;;23.13;;
52674;SDS011;38569;52.722;6.440;2023-10-13T03:16:11;36.70;;;23.85;;
52674;SDS011;38569;52.722;6.440;2023-10-13T03:18:40;43.00;;;26.55;;
52674;SDS011;38569;52.722;6.440;2023-10-13T03:21:16;46.83;;;27.35;;
52674;SDS011;38569;52.722;6.440;2023-10-13T03:23:57;44.90;;;26.73;;
52674;SDS011;38569;52.722;6.440;2023-10-13T03:26:30;41.17;;;25.95;;
52674;SDS011;38569;52.722;6.440;2023-10-13T03:29:00;40.00;;;26.35;;
52674;SDS011;38569;52.722;6.440;2023-10-13T03:31:29;39.70;;;26.88;;
52674;SDS011;38569;52.722;6.440;2023-10-13T03:33:55;42.25;;;25.85;;
52674;SDS011;38569;52.722;6.440;2023-10-13T03:36:26;42.72;;;27.20;;
52674;SDS011;38569;52.722;6.440;2023-10-13T03:39:21;42.13;;;26.88;;
52674;SDS011;38569;52.722;6.440;2023-10-13T03:41:55;47.03;;;28.90;;
52674;SDS011;38569;52.722;6.440;2023-10-13T03:44:22;37.97;;;26.67;;
52674;SDS011;38569;52.722;6.440;2023-10-13T03:46:48;46.30;;;28.77;;
52674;SDS011;38569;52.722;6.440;2023-10-13T03:49:17;53.03;;;31.85;;
52674;SDS011;38569;52.722;6.440;2023-10-13T03:51:49;43.80;;;28.48;;
52674;SDS011;38569;52.722;6.440;2023-10-13T03:54:16;42.60;;;27.42;;
52674;SDS011;38569;52.722;6.440;2023-10-13T03:56:42;42.72;;;28.33;;
52674;SDS011;38569;52.722;6.440;2023-10-13T03:59:12;37.30;;;27.58;;
52674;SDS011;38569;52.722;6.440;2023-10-13T04:01:38;39.33;;;26.45;;
52674;SDS011;38569;52.722;6.440;2023-10-13T04:04:24;46.30;;;27.70;;
52674;SDS011;38569;52.722;6.440;2023-10-13T04:07:00;44.10;;;27.13;;
52674;SDS011;38569;52.722;6.440;2023-10-13T04:09:47;39.53;;;26.15;;
52674;SDS011;38569;52.722;6.440;2023-10-13T04:12:12;38.95;;;25.90;;
52674;SDS011;38569;52.722;6.440;2023-10-13T04:14:42;43.28;;;28.25;;
52674;SDS011;38569;52.722;6.440;2023-10-13T04:17:21;39.83;;;25.67;;
52674;SDS011;38569;52.722;6.440;2023-10-13T04:19:56;43.58;;;27.48;;
52674;SDS011;38569;52.722;6.440;2023-10-13T04:25:17;42.22;;;26.15;;
52674;SDS011;38569;52.722;6.440;2023-10-13T04:28:14;42.15;;;25.17;;
52674;SDS011;38569;52.722;6.440;2023-10-13T04:30:51;38.83;;;26.85;;
52674;SDS011;38569;52.722;6.440;2023-10-13T04:33:25;37.22;;;26.85;;
52674;SDS011;38569;52.722;6.440;2023-10-13T04:44:23;46.47;;;26.80;;
52674;SDS011;38569;52.722;6.440;2023-10-13T04:46:56;46.83;;;25.90;;
52674;SDS011;38569;52.722;6.440;2023-10-13T04:49:26;36.13;;;24.13;;
52674;SDS011;38569;52.722;6.440;2023-10-13T04:52:07;35.95;;;23.45;;
52674;SDS011;38569;52.722;6.440;2023-10-13T04:54:34;47.80;;;25.67;;
52674;SDS011;38569;52.722;6.440;2023-10-13T04:57:11;36.00;;;21.17;;
52674;SDS011;38569;52.722;6.440;2023-10-13T04:59:56;33.55;;;21.63;;
52674;SDS011;38569;52.722;6.440;2023-10-13T05:02:42;34.75;;;22.23;;
52674;SDS011;38569;52.722;6.440;2023-10-13T05:05:12;39.00;;;22.58;;
52674;SDS011;38569;52.722;6.440;2023-10-13T05:07:39;36.75;;;22.75;;
52674;SDS011;38569;52.722;6.440;2023-10-13T05:10:24;40.28;;;22.95;;
52674;SDS011;38569;52.722;6.440;2023-10-13T05:13:08;27.83;;;20.55;;
52674;SDS011;38569;52.722;6.440;2023-10-13T05:15:53;30.55;;;20.38;;
52674;SDS011;38569;52.722;6.440;2023-10-13T05:18:37;33.38;;;22.63;;
52674;SDS011;38569;52.722;6.440;2023-10-13T05:21:21;39.10;;;20.63;;
52674;SDS011;38569;52.722;6.440;2023-10-13T05:24:06;35.35;;;21.63;;
52674;SDS011;38569;52.722;6.440;2023-10-13T05:26:51;39.38;;;22.70;;
52674;SDS011;38569;52.722;6.440;2023-10-13T05:29:39;37.00;;;21.42;;
52674;SDS011;38569;52.722;6.440;2023-10-13T05:32:27;31.83;;;19.15;;
52674;SDS011;38569;52.722;6.440;2023-10-13T05:35:12;27.10;;;19.13;;
52674;SDS011;38569;52.722;6.440;2023-10-13T05:37:57;32.13;;;19.02;;
52674;SDS011;38569;52.722;6.440;2023-10-13T05:43:58;26.27;;;17.17;;
52674;SDS011;38569;52.722;6.440;2023-10-13T05:46:43;21.70;;;14.63;;
52674;SDS011;38569;52.722;6.440;2023-10-13T05:49:15;21.73;;;14.82;;
52674;SDS011;38569;52.722;6.440;2023-10-13T05:51:41;21.23;;;15.18;;
52674;SDS011;38569;52.722;6.440;2023-10-13T05:54:07;21.85;;;14.13;;
52674;SDS011;38569;52.722;6.440;2023-10-13T05:56:48;22.05;;;15.00;;
52674;SDS011;38569;52.722;6.440;2023-10-13T06:02:21;21.92;;;14.25;;
52674;SDS011;38569;52.722;6.440;2023-10-13T06:05:07;20.30;;;14.68;;
52674;SDS011;38569;52.722;6.440;2023-10-13T06:07:55;19.20;;;13.00;;
52674;SDS011;38569;52.722;6.440;2023-10-13T06:10:40;20.00;;;13.30;;
52674;SDS011;38569;52.722;6.440;2023-10-13T06:13:25;22.83;;;14.68;;
52674;SDS011;38569;52.722;6.440;2023-10-13T06:16:10;19.27;;;13.35;;
52674;SDS011;38569;52.722;6.440;2023-10-13T06:18:55;16.52;;;11.90;;
52674;SDS011;38569;52.722;6.440;2023-10-13T06:21:40;23.75;;;12.93;;
52674;SDS011;38569;52.722;6.440;2023-10-13T06:24:24;17.17;;;11.68;;
52674;SDS011;38569;52.722;6.440;2023-10-13T06:27:09;14.07;;;9.95;;
52674;SDS011;38569;52.722;6.440;2023-10-13T06:29:53;14.63;;;10.70;;
52674;SDS011;38569;52.722;6.440;2023-10-13T06:32:19;14.75;;;11.35;;
52674;SDS011;38569;52.722;6.440;2023-10-13T06:34:51;18.02;;;12.07;;
52674;SDS011;38569;52.722;6.440;2023-10-13T06:37:22;20.30;;;13.00;;
52674;SDS011;38569;52.722;6.440;2023-10-13T06:39:55;17.23;;;10.93;;
52674;SDS011;38569;52.722;6.440;2023-10-13T06:42:26;18.63;;;11.45;;
52674;SDS011;38569;52.722;6.440;2023-10-13T06:44:54;16.95;;;10.35;;
52674;SDS011;38569;52.722;6.440;2023-10-13T06:47:21;15.52;;;10.38;;
52674;SDS011;38569;52.722;6.440;2023-10-13T06:49:48;15.55;;;8.93;;
52674;SDS011;38569;52.722;6.440;2023-10-13T06:52:16;13.95;;;8.82;;
52674;SDS011;38569;52.722;6.440;2023-10-13T06:54:42;16.25;;;8.80;;
52674;SDS011;38569;52.722;6.440;2023-10-13T06:57:08;15.95;;;8.77;;
52674;SDS011;38569;52.722;6.440;2023-10-13T06:59:45;14.45;;;7.50;;
52674;SDS011;38569;52.722;6.440;2023-10-13T07:02:11;16.27;;;8.85;;
52674;SDS011;38569;52.722;6.440;2023-10-13T07:04:46;14.85;;;7.60;;
52674;SDS011;38569;52.722;6.440;2023-10-13T07:07:12;14.88;;;7.15;;
52674;SDS011;38569;52.722;6.440;2023-10-13T07:09:41;22.38;;;8.30;;
52674;SDS011;38569;52.722;6.440;2023-10-13T07:12:23;16.52;;;6.60;;
52674;SDS011;38569;52.722;6.440;2023-10-13T07:14:51;12.40;;;6.85;;
52674;SDS011;38569;52.722;6.440;2023-10-13T07:17:18;11.88;;;7.22;;
52674;SDS011;38569;52.722;6.440;2023-10-13T07:19:51;14.25;;;6.60;;
52674;SDS011;38569;52.722;6.440;2023-10-13T07:22:44;13.55;;;7.38;;
52674;SDS011;38569;52.722;6.440;2023-10-13T07:25:28;17.55;;;7.72;;
52674;SDS011;38569;52.722;6.440;2023-10-13T07:27:58;19.38;;;8.93;;
52674;SDS011;38569;52.722;6.440;2023-10-13T07:30:28;14.43;;;7.88;;
52674;SDS011;38569;52.722;6.440;2023-10-13T07:32:56;12.75;;;8.23;;
52674;SDS011;38569;52.722;6.440;2023-10-13T07:35:24;15.07;;;8.13;;
52674;SDS011;38569;52.722;6.440;2023-10-13T07:37:50;19.42;;;8.32;;
52674;SDS011;38569;52.722;6.440;2023-10-13T07:40:21;13.68;;;9.35;;
52674;SDS011;38569;52.722;6.440;2023-10-13T07:43:07;18.13;;;9.20;;
52674;SDS011;38569;52.722;6.440;2023-10-13T07:45:37;20.75;;;9.43;;
52674;SDS011;38569;52.722;6.440;2023-10-13T07:48:04;15.05;;;7.88;;
52674;SDS011;38569;52.722;6.440;2023-10-13T07:50:46;17.25;;;9.55;;
52674;SDS011;38569;52.722;6.440;2023-10-13T07:53:14;21.00;;;11.48;;
52674;SDS011;38569;52.722;6.440;2023-10-13T07:55:49;22.67;;;10.27;;
52674;SDS011;38569;52.722;6.440;2023-10-13T07:58:22;18.55;;;9.18;;
52674;SDS011;38569;52.722;6.440;2023-10-13T08:00:51;28.23;;;12.63;;
52674;SDS011;38569;52.722;6.440;2023-10-13T08:03:39;16.02;;;9.75;;
52674;SDS011;38569;52.722;6.440;2023-10-13T08:06:17;21.50;;;10.02;;
52674;SDS011;38569;52.722;6.440;2023-10-13T08:08:43;22.58;;;9.07;;
52674;SDS011;38569;52.722;6.440;2023-10-13T08:11:12;24.25;;;10.00;;
52674;SDS011;38569;52.722;6.440;2023-10-13T08:14:00;22.40;;;10.43;;
52674;SDS011;38569;52.722;6.440;2023-10-13T08:16:36;17.17;;;9.98;;
52674;SDS011;38569;52.722;6.440;2023-10-13T08:19:22;21.55;;;9.82;;
52674;SDS011;38569;52.722;6.440;2023-10-13T08:21:53;32.22;;;13.23;;
52674;SDS011;38569;52.722;6.440;2023-10-13T08:24:23;19.40;;;10.88;;
52674;SDS011;38569;52.722;6.440;2023-10-13T08:27:04;23.58;;;11.05;;
52674;SDS011;38569;52.722;6.440;2023-10-13T08:29:40;22.17;;;11.07;;
52674;SDS011;38569;52.722;6.440;2023-10-13T08:32:21;26.95;;;11.13;;
52674;SDS011;38569;52.722;6.440;2023-10-13T08:34:57;20.35;;;10.73;;
52674;SDS011;38569;52.722;6.440;2023-10-13T08:37:27;18.42;;;10.00;;
52674;SDS011;38569;52.722;6.440;2023-10-13T08:39:58;18.80;;;11.70;;
52674;SDS011;38569;52.722;6.440;2023-10-13T08:42:31;23.83;;;11.95;;
52674;SDS011;38569;52.722;6.440;2023-10-13T08:45:20;18.80;;;11.45;;
52674;SDS011;38569;52.722;6.440;2023-10-13T08:47:56;24.83;;;11.68;;
52674;SDS011;38569;52.722;6.440;2023-10-13T08:50:52;21.48;;;11.00;;
52674;SDS011;38569;52.722;6.440;2023-10-13T08:53:21;18.13;;;10.98;;
52674;SDS011;38569;52.722;6.440;2023-10-13T08:56:10;18.42;;;10.38;;
52674;SDS011;38569;52.722;6.440;2023-10-13T08:58:39;20.98;;;12.35;;
52674;SDS011;38569;52.722;6.440;2023-10-13T09:01:22;15.00;;;10.05;;
52674;SDS011;38569;52.722;6.440;2023-10-13T09:04:03;13.88;;;8.32;;
52674;SDS011;38569;52.722;6.440;2023-10-13T09:06:57;19.70;;;9.10;;
52674;SDS011;38569;52.722;6.440;2023-10-13T09:09:34;15.77;;;8.38;;
52674;SDS011;38569;52.722;6.440;2023-10-13T09:12:10;18.45;;;9.05;;
52674;SDS011;38569;52.722;6.440;2023-10-13T09:14:43;16.73;;;8.95;;
52674;SDS011;38569;52.722;6.440;2023-10-13T09:17:13;14.05;;;8.20;;
52674;SDS011;38569;52.722;6.440;2023-10-13T09:19:48;13.18;;;7.40;;
52674;SDS011;38569;52.722;6.440;2023-10-13T09:22:27;15.63;;;8.18;;
52674;SDS011;38569;52.722;6.440;2023-10-13T09:25:03;15.45;;;7.93;;
52674;SDS011;38569;52.722;6.440;2023-10-13T09:27:39;13.30;;;7.35;;
52674;SDS011;38569;52.722;6.440;2023-10-13T09:30:05;16.75;;;8.07;;
52674;SDS011;38569;52.722;6.440;2023-10-13T09:32:35;12.93;;;7.47;;
52674;SDS011;38569;52.722;6.440;2023-10-13T09:35:19;14.15;;;6.88;;
52674;SDS011;38569;52.722;6.440;2023-10-13T09:37:49;15.30;;;6.82;;
52674;SDS011;38569;52.722;6.440;2023-10-13T09:40:16;16.50;;;7.50;;
52674;SDS011;38569;52.722;6.440;2023-10-13T09:42:58;15.10;;;7.18;;
52674;SDS011;38569;52.722;6.440;2023-10-13T09:45:34;16.75;;;7.38;;
52674;SDS011;38569;52.722;6.440;2023-10-13T09:48:27;15.75;;;6.55;;
52674;SDS011;38569;52.722;6.440;2023-10-13T09:50:59;12.48;;;6.72;;
52674;SDS011;38569;52.722;6.440;2023-10-13T09:53:28;10.80;;;6.32;;
52674;SDS011;38569;52.722;6.440;2023-10-13T09:56:03;15.75;;;6.78;;
52674;SDS011;38569;52.722;6.440;2023-10-13T09:58:48;13.35;;;6.75;;
52674;SDS011;38569;52.722;6.440;2023-10-13T10:01:27;13.48;;;6.53;;
52674;SDS011;38569;52.722;6.440;2023-10-13T10:04:10;18.63;;;7.50;;
52674;SDS011;38569;52.722;6.440;2023-10-13T10:06:51;15.05;;;6.80;;
52674;SDS011;38569;52.722;6.440;2023-10-13T10:09:17;16.40;;;7.13;;
52674;SDS011;38569;52.722;6.440;2023-10-13T10:17:24;20.27;;;6.28;;
52674;SDS011;38569;52.722;6.440;2023-10-13T10:19:55;20.75;;;7.05;;
52674;SDS011;38569;52.722;6.440;2023-10-13T10:22:27;13.52;;;6.70;;
52674;SDS011;38569;52.722;6.440;2023-10-13T10:25:01;13.43;;;6.63;;
52674;SDS011;38569;52.722;6.440;2023-10-13T10:27:29;10.65;;;6.88;;
52674;SDS011;38569;52.722;6.440;2023-10-13T10:29:56;22.13;;;6.95;;
52674;SDS011;38569;52.722;6.440;2023-10-13T10:33:29;19.25;;;8.02;;
52674;SDS011;38569;52.722;6.440;2023-10-13T10:35:57;16.08;;;7.15;;
52674;SDS011;38569;52.722;6.440;2023-10-13T10:38:24;13.80;;;7.00;;
52674;SDS011;38569;52.722;6.440;2023-10-13T10:40:54;12.98;;;6.78;;
52674;SDS011;38569;52.722;6.440;2023-10-13T10:43:27;11.50;;;6.50;;
52674;SDS011;38569;52.722;6.440;2023-10-13T10:46:14;12.60;;;6.38;;
52674;SDS011;38569;52.722;6.440;2023-10-13T10:48:44;18.40;;;7.03;;
52674;SDS011;38569;52.722;6.440;2023-10-13T10:51:10;16.15;;;7.07;;
52674;SDS011;38569;52.722;6.440;2023-10-13T10:54:00;15.82;;;6.70;;
52674;SDS011;38569;52.722;6.440;2023-10-13T10:56:38;19.63;;;7.05;;
52674;SDS011;38569;52.722;6.440;2023-10-13T10:59:04;15.73;;;7.13;;
52674;SDS011;38569;52.722;6.440;2023-10-13T11:01:43;16.13;;;6.85;;
52674;SDS011;38569;52.722;6.440;2023-10-13T11:04:16;16.00;;;7.43;;
52674;SDS011;38569;52.722;6.440;2023-10-13T11:06:52;18.42;;;7.05;;
52674;SDS011;38569;52.722;6.440;2023-10-13T11:09:25;16.90;;;7.13;;
52674;SDS011;38569;52.722;6.440;2023-10-13T11:14:40;18.20;;;6.18;;
52674;SDS011;38569;52.722;6.440;2023-10-13T11:17:06;16.00;;;5.85;;
52674;SDS011;38569;52.722;6.440;2023-10-13T11:19:46;15.15;;;6.43;;
52674;SDS011;38569;52.722;6.440;2023-10-13T11:22:19;15.77;;;8.10;;
52674;SDS011;38569;52.722;6.440;2023-10-13T11:25:04;17.90;;;6.63;;
52674;SDS011;38569;52.722;6.440;2023-10-13T11:27:34;15.93;;;5.78;;
52674;SDS011;38569;52.722;6.440;2023-10-13T11:30:11;13.63;;;6.80;;
52674;SDS011;38569;52.722;6.440;2023-10-13T11:32:44;19.27;;;6.97;;
52674;SDS011;38569;52.722;6.440;2023-10-13T11:35:12;15.35;;;6.53;;
52674;SDS011;38569;52.722;6.440;2023-10-13T11:37:47;17.70;;;6.38;;
52674;SDS011;38569;52.722;6.440;2023-10-13T11:40:38;15.05;;;6.22;;
52674;SDS011;38569;52.722;6.440;2023-10-13T11:43:24;18.80;;;6.43;;
52674;SDS011;38569;52.722;6.440;2023-10-13T11:45:51;15.45;;;6.50;;
52674;SDS011;38569;52.722;6.440;2023-10-13T11:48:25;15.38;;;7.15;;
52674;SDS011;38569;52.722;6.440;2023-10-13T11:51:17;16.60;;;6.68;;
52674;SDS011;38569;52.722;6.440;2023-10-13T11:53:49;20.23;;;6.28;;
52674;SDS011;38569;52.722;6.440;2023-10-13T11:56:21;12.40;;;5.65;;
52674;SDS011;38569;52.722;6.440;2023-10-13T11:58:47;25.70;;;7.18;;
52674;SDS011;38569;52.722;6.440;2023-10-13T12:01:14;12.95;;;6.68;;
52674;SDS011;38569;52.722;6.440;2023-10-13T12:06:29;16.75;;;6.93;;
52674;SDS011;38569;52.722;6.440;2023-10-13T12:11:44;15.25;;;6.50;;
52674;SDS011;38569;52.722;6.440;2023-10-13T12:14:10;20.35;;;7.28;;
52674;SDS011;38569;52.722;6.440;2023-10-13T12:16:42;14.93;;;6.78;;
52674;SDS011;38569;52.722;6.440;2023-10-13T12:19:13;13.40;;;6.43;;
52674;SDS011;38569;52.722;6.440;2023-10-13T12:21:41;21.30;;;6.63;;
52674;SDS011;38569;52.722;6.440;2023-10-13T12:24:09;16.92;;;7.80;;
52674;SDS011;38569;52.722;6.440;2023-10-13T12:26:47;18.27;;;7.03;;
52674;SDS011;38569;52.722;6.440;2023-10-13T12:29:22;13.77;;;7.50;;
52674;SDS011;38569;52.722;6.440;2023-10-13T12:31:53;20.52;;;7.47;;
52674;SDS011;38569;52.722;6.440;2023-10-13T12:34:37;13.77;;;6.53;;
52674;SDS011;38569;52.722;6.440;2023-10-13T12:37:21;12.75;;;6.20;;
52674;SDS011;38569;52.722;6.440;2023-10-13T12:40:01;15.77;;;6.63;;
52674;SDS011;38569;52.722;6.440;2023-10-13T12:42:48;17.67;;;6.97;;
52674;SDS011;38569;52.722;6.440;2023-10-13T12:45:32;16.40;;;7.15;;
52674;SDS011;38569;52.722;6.440;2023-10-13T12:48:16;16.35;;;6.90;;
52674;SDS011;38569;52.722;6.440;2023-10-13T12:51:01;20.80;;;8.05;;
52674;SDS011;38569;52.722;6.440;2023-10-13T12:53:48;20.02;;;6.43;;
52674;SDS011;38569;52.722;6.440;2023-10-13T12:56:17;24.02;;;6.88;;
52674;SDS011;38569;52.722;6.440;2023-10-13T12:58:51;20.95;;;6.82;;
52674;SDS011;38569;52.722;6.440;2023-10-13T13:01:21;16.88;;;6.18;;
52674;SDS011;38569;52.722;6.440;2023-10-13T13:03:48;17.67;;;6.05;;
52674;SDS011;38569;52.722;6.440;2023-10-13T13:06:22;16.67;;;6.72;;
52674;SDS011;38569;52.722;6.440;2023-10-13T13:08:55;17.63;;;5.82;;
52674;SDS011;38569;52.722;6.440;2023-10-13T13:11:22;18.67;;;6.18;;
52674;SDS011;38569;52.722;6.440;2023-10-13T13:13:48;19.58;;;5.78;;
52674;SDS011;38569;52.722;6.440;2023-10-13T13:16:18;19.23;;;7.22;;
52674;SDS011;38569;52.722;6.440;2023-10-13T13:18:49;13.85;;;7.22;;
52674;SDS011;38569;52.722;6.440;2023-10-13T13:21:15;15.75;;;6.07;;
52674;SDS011;38569;52.722;6.440;2023-10-13T13:23:50;19.98;;;7.00;;
52674;SDS011;38569;52.722;6.440;2023-10-13T13:26:16;17.50;;;6.60;;
52674;SDS011;38569;52.722;6.440;2023-10-13T13:28:43;16.55;;;7.65;;
52674;SDS011;38569;52.722;6.440;2023-10-13T13:31:10;22.00;;;7.10;;
52674;SDS011;38569;52.722;6.440;2023-10-13T13:33:40;22.10;;;6.53;;
52674;SDS011;38569;52.722;6.440;2023-10-13T13:36:08;21.10;;;7.63;;
52674;SDS011;38569;52.722;6.440;2023-10-13T13:38:40;17.10;;;6.13;;
52674;SDS011;38569;52.722;6.440;2023-10-13T13:41:13;15.15;;;7.28;;
52674;SDS011;38569;52.722;6.440;2023-10-13T13:43:43;19.13;;;7.97;;
52674;SDS011;38569;52.722;6.440;2023-10-13T13:46:15;15.00;;;6.97;;
52674;SDS011;38569;52.722;6.440;2023-10-13T13:48:42;22.48;;;8.27;;
52674;SDS011;38569;52.722;6.440;2023-10-13T13:51:08;15.10;;;7.20;;
52674;SDS011;38569;52.722;6.440;2023-10-13T13:53:40;18.60;;;7.70;;
52674;SDS011;38569;52.722;6.440;2023-10-13T13:56:16;13.77;;;8.60;;
52674;SDS011;38569;52.722;6.440;2023-10-13T13:58:48;18.25;;;8.20;;
52674;SDS011;38569;52.722;6.440;2023-10-13T14:01:21;21.13;;;8.52;;
52674;SDS011;38569;52.722;6.440;2023-10-13T14:03:48;18.80;;;8.27;;
52674;SDS011;38569;52.722;6.440;2023-10-13T14:06:18;23.00;;;8.43;;
52674;SDS011;38569;52.722;6.440;2023-10-13T14:08:55;18.48;;;8.38;;
52674;SDS011;38569;52.722;6.440;2023-10-13T14:11:29;17.70;;;8.10;;
52674;SDS011;38569;52.722;6.440;2023-10-13T14:14:10;17.48;;;7.88;;
52674;SDS011;38569;52.722;6.440;2023-10-13T14:16:43;16.90;;;8.10;;
52674;SDS011;38569;52.722;6.440;2023-10-13T14:19:15;20.80;;;8.35;;
52674;SDS011;38569;52.722;6.440;2023-10-13T14:21:57;25.80;;;9.32;;
52674;SDS011;38569;52.722;6.440;2023-10-13T14:24:23;23.13;;;8.57;;
52674;SDS011;38569;52.722;6.440;2023-10-13T14:27:02;29.85;;;9.25;;
52674;SDS011;38569;52.722;6.440;2023-10-13T14:29:46;17.70;;;9.35;;
52674;SDS011;38569;52.722;6.440;2023-10-13T14:32:13;15.05;;;8.95;;
52674;SDS011;38569;52.722;6.440;2023-10-13T14:34:43;24.17;;;10.55;;
52674;SDS011;38569;52.722;6.440;2023-10-13T14:37:10;19.95;;;8.57;;
52674;SDS011;38569;52.722;6.440;2023-10-13T14:39:38;22.95;;;9.35;;
52674;SDS011;38569;52.722;6.440;2023-10-13T14:42:04;21.65;;;9.95;;
52674;SDS011;38569;52.722;6.440;2023-10-13T14:44:34;21.38;;;9.20;;
52674;SDS011;38569;52.722;6.440;2023-10-13T14:47:00;16.23;;;8.20;;
52674;SDS011;38569;52.722;6.440;2023-10-13T14:49:26;25.88;;;10.65;;
52674;SDS011;38569;52.722;6.440;2023-10-13T14:51:53;25.88;;;8.98;;
52674;SDS011;38569;52.722;6.440;2023-10-13T14:54:20;26.23;;;10.20;;
52674;SDS011;38569;52.722;6.440;2023-10-13T14:57:01;23.00;;;9.30;;
52674;SDS011;38569;52.722;6.440;2023-10-13T14:59:28;19.70;;;10.93;;
52674;SDS011;38569;52.722;6.440;2023-10-13T15:01:58;25.45;;;9.82;;
52674;SDS011;38569;52.722;6.440;2023-10-13T15:04:26;26.00;;;12.13;;
52674;SDS011;38569;52.722;6.440;2023-10-13T15:06:53;19.67;;;10.32;;
52674;SDS011;38569;52.722;6.440;2023-10-13T15:09:20;21.88;;;10.48;;
52674;SDS011;38569;52.722;6.440;2023-10-13T15:11:49;18.88;;;10.15;;
52674;SDS011;38569;52.722;6.440;2023-10-13T15:14:18;25.38;;;10.57;;
52674;SDS011;38569;52.722;6.440;2023-10-13T15:16:45;19.85;;;11.45;;
52674;SDS011;38569;52.722;6.440;2023-10-13T15:19:11;24.13;;;11.77;;
52674;SDS011;38569;52.722;6.440;2023-10-13T15:21:37;26.55;;;13.38;;
52674;SDS011;38569;52.722;6.440;2023-10-13T15:24:06;23.65;;;12.38;;
52674;SDS011;38569;52.722;6.440;2023-10-13T15:26:47;27.08;;;11.15;;
52674;SDS011;38569;52.722;6.440;2023-10-13T15:29:16;19.10;;;10.82;;
52674;SDS011;38569;52.722;6.440;2023-10-13T15:31:44;21.52;;;11.45;;
52674;SDS011;38569;52.722;6.440;2023-10-13T15:34:25;23.13;;;11.45;;
52674;SDS011;38569;52.722;6.440;2023-10-13T15:36:52;18.48;;;10.70;;
52674;SDS011;38569;52.722;6.440;2023-10-13T15:39:19;27.42;;;12.48;;
52674;SDS011;38569;52.722;6.440;2023-10-13T15:41:52;18.20;;;10.18;;